sensor_id;sensor_type;location;lat;lon;timestamp;P1;durP1;ratioP1;P2;durP2;ratioP2
5696;SDS011;2873;50.966;7.210;2023-08-17T00:01:20;10.37;;;6.97;;
5696;SDS011;2873;50.966;7.210;2023-08-17T00:03:45;8.83;;;6.80;;
5696;SDS011;2873;50.966;7.210;2023-08-17T00:06:11;7.87;;;6.80;;
5696;SDS011;2873;50.966;7.210;2023-08-17T00:08:37;12.65;;;7.25;;
5696;SDS011;2873;50.966;7.210;2023-08-17T00:11:02;8.85;;;7.22;;
5696;SDS011;2873;50.966;7.210;2023-08-17T00:13:28;8.00;;;7.20;;
5696;SDS011;2873;50.966;7.210;2023-08-17T00:15:54;15.20;;;7.53;;
5696;SDS011;2873;50.966;7.210;2023-08-17T00:18:19;14.35;;;7.15;;
5696;SDS011;2873;50.966;7.210;2023-08-17T00:20:45;8.82;;;7.38;;
5696;SDS011;2873;50.966;7.210;2023-08-17T00:23:10;14.50;;;7.30;;
5696;SDS011;2873;50.966;7.210;2023-08-17T00:25:36;8.80;;;7.27;;
5696;SDS011;2873;50.966;7.210;2023-08-17T00:28:01;11.37;;;7.40;;
5696;SDS011;2873;50.966;7.210;2023-08-17T00:30:27;9.00;;;6.90;;
5696;SDS011;2873;50.966;7.210;2023-08-17T00:32:52;8.80;;;6.60;;
5696;SDS011;2873;50.966;7.210;2023-08-17T00:35:18;9.75;;;6.70;;
5696;SDS011;2873;50.966;7.210;2023-08-17T00:37:43;8.10;;;6.95;;
5696;SDS011;2873;50.966;7.210;2023-08-17T00:40:09;10.13;;;7.00;;
5696;SDS011;2873;50.966;7.210;2023-08-17T00:42:35;8.45;;;6.88;;
5696;SDS011;2873;50.966;7.210;2023-08-17T00:45:01;13.57;;;7.18;;
5696;SDS011;2873;50.966;7.210;2023-08-17T00:47:27;13.70;;;8.00;;
5696;SDS011;2873;50.966;7.210;2023-08-17T00:49:53;7.33;;;6.63;;
5696;SDS011;2873;50.966;7.210;2023-08-17T00:52:18;11.40;;;7.55;;
5696;SDS011;2873;50.966;7.210;2023-08-17T00:54:44;10.70;;;7.40;;
5696;SDS011;2873;50.966;7.210;2023-08-17T00:57:10;7.90;;;6.73;;
5696;SDS011;2873;50.966;7.210;2023-08-17T00:59:36;8.80;;;6.80;;
5696;SDS011;2873;50.966;7.210;2023-08-17T01:02:02;9.40;;;6.90;;
5696;SDS011;2873;50.966;7.210;2023-08-17T01:04:28;8.05;;;6.65;;
5696;SDS011;2873;50.966;7.210;2023-08-17T01:06:53;8.57;;;6.90;;
5696;SDS011;2873;50.966;7.210;2023-08-17T01:09:19;11.47;;;6.20;;
5696;SDS011;2873;50.966;7.210;2023-08-17T01:11:46;8.07;;;6.23;;
5696;SDS011;2873;50.966;7.210;2023-08-17T01:14:20;6.70;;;5.97;;
5696;SDS011;2873;50.966;7.210;2023-08-17T01:17:03;8.63;;;6.25;;
5696;SDS011;2873;50.966;7.210;2023-08-17T01:19:40;13.30;;;6.67;;
5696;SDS011;2873;50.966;7.210;2023-08-17T01:22:08;10.55;;;6.13;;
5696;SDS011;2873;50.966;7.210;2023-08-17T01:24:35;10.52;;;6.20;;
5696;SDS011;2873;50.966;7.210;2023-08-17T01:27:01;8.35;;;5.95;;
5696;SDS011;2873;50.966;7.210;2023-08-17T01:29:27;6.70;;;6.10;;
5696;SDS011;2873;50.966;7.210;2023-08-17T01:34:40;7.05;;;5.97;;
5696;SDS011;2873;50.966;7.210;2023-08-17T01:37:09;7.93;;;6.10;;
5696;SDS011;2873;50.966;7.210;2023-08-17T01:39:39;7.45;;;5.78;;
5696;SDS011;2873;50.966;7.210;2023-08-17T01:42:10;10.52;;;6.00;;
5696;SDS011;2873;50.966;7.210;2023-08-17T01:44:38;13.03;;;5.80;;
5696;SDS011;2873;50.966;7.210;2023-08-17T01:47:04;8.20;;;5.40;;
5696;SDS011;2873;50.966;7.210;2023-08-17T01:49:30;8.63;;;5.57;;
5696;SDS011;2873;50.966;7.210;2023-08-17T01:51:55;5.90;;;5.30;;
5696;SDS011;2873;50.966;7.210;2023-08-17T01:54:21;7.03;;;5.80;;
5696;SDS011;2873;50.966;7.210;2023-08-17T01:56:47;7.07;;;5.70;;
5696;SDS011;2873;50.966;7.210;2023-08-17T01:59:12;9.60;;;6.07;;
5696;SDS011;2873;50.966;7.210;2023-08-17T02:01:38;6.13;;;5.57;;
5696;SDS011;2873;50.966;7.210;2023-08-17T02:04:03;8.30;;;5.30;;
5696;SDS011;2873;50.966;7.210;2023-08-17T02:06:30;7.22;;;5.30;;
5696;SDS011;2873;50.966;7.210;2023-08-17T02:08:55;6.25;;;5.53;;
5696;SDS011;2873;50.966;7.210;2023-08-17T02:11:21;10.17;;;5.43;;
5696;SDS011;2873;50.966;7.210;2023-08-17T02:13:46;9.37;;;5.60;;
5696;SDS011;2873;50.966;7.210;2023-08-17T02:16:12;5.80;;;5.20;;
5696;SDS011;2873;50.966;7.210;2023-08-17T02:18:37;12.70;;;6.20;;
5696;SDS011;2873;50.966;7.210;2023-08-17T02:21:03;7.40;;;5.68;;
5696;SDS011;2873;50.966;7.210;2023-08-17T02:23:28;6.50;;;5.80;;
5696;SDS011;2873;50.966;7.210;2023-08-17T02:25:54;9.40;;;5.20;;
5696;SDS011;2873;50.966;7.210;2023-08-17T02:28:19;9.10;;;5.73;;
5696;SDS011;2873;50.966;7.210;2023-08-17T02:30:45;9.93;;;5.83;;
5696;SDS011;2873;50.966;7.210;2023-08-17T02:33:11;8.30;;;6.82;;
5696;SDS011;2873;50.966;7.210;2023-08-17T02:35:37;9.97;;;7.20;;
5696;SDS011;2873;50.966;7.210;2023-08-17T02:38:02;7.73;;;6.80;;
5696;SDS011;2873;50.966;7.210;2023-08-17T02:40:28;9.05;;;6.95;;
5696;SDS011;2873;50.966;7.210;2023-08-17T02:42:54;11.40;;;7.20;;
5696;SDS011;2873;50.966;7.210;2023-08-17T02:45:19;8.57;;;6.70;;
5696;SDS011;2873;50.966;7.210;2023-08-17T02:47:45;8.40;;;7.05;;
5696;SDS011;2873;50.966;7.210;2023-08-17T02:50:10;8.23;;;6.65;;
5696;SDS011;2873;50.966;7.210;2023-08-17T02:52:36;11.30;;;7.70;;
5696;SDS011;2873;50.966;7.210;2023-08-17T02:55:01;11.00;;;6.80;;
5696;SDS011;2873;50.966;7.210;2023-08-17T02:57:27;9.63;;;7.00;;
5696;SDS011;2873;50.966;7.210;2023-08-17T02:59:53;11.27;;;8.05;;
5696;SDS011;2873;50.966;7.210;2023-08-17T03:02:18;13.13;;;8.47;;
5696;SDS011;2873;50.966;7.210;2023-08-17T03:04:44;14.70;;;8.50;;
5696;SDS011;2873;50.966;7.210;2023-08-17T03:07:09;10.30;;;8.40;;
5696;SDS011;2873;50.966;7.210;2023-08-17T03:09:35;12.43;;;7.78;;
5696;SDS011;2873;50.966;7.210;2023-08-17T03:12:00;12.55;;;8.10;;
5696;SDS011;2873;50.966;7.210;2023-08-17T03:14:26;13.30;;;7.83;;
5696;SDS011;2873;50.966;7.210;2023-08-17T03:16:51;9.70;;;7.33;;
5696;SDS011;2873;50.966;7.210;2023-08-17T03:19:17;10.40;;;6.80;;
5696;SDS011;2873;50.966;7.210;2023-08-17T03:21:43;11.30;;;7.25;;
5696;SDS011;2873;50.966;7.210;2023-08-17T03:24:08;13.05;;;7.80;;
5696;SDS011;2873;50.966;7.210;2023-08-17T03:26:34;12.67;;;7.47;;
5696;SDS011;2873;50.966;7.210;2023-08-17T03:28:59;11.00;;;7.33;;
5696;SDS011;2873;50.966;7.210;2023-08-17T03:31:25;11.43;;;8.60;;
5696;SDS011;2873;50.966;7.210;2023-08-17T03:33:50;10.48;;;7.85;;
5696;SDS011;2873;50.966;7.210;2023-08-17T03:36:16;13.60;;;7.40;;
5696;SDS011;2873;50.966;7.210;2023-08-17T03:38:41;11.17;;;7.40;;
5696;SDS011;2873;50.966;7.210;2023-08-17T03:41:07;9.00;;;7.30;;
5696;SDS011;2873;50.966;7.210;2023-08-17T03:43:33;10.20;;;7.18;;
5696;SDS011;2873;50.966;7.210;2023-08-17T03:45:58;11.75;;;7.20;;
5696;SDS011;2873;50.966;7.210;2023-08-17T03:48:24;12.30;;;7.77;;
5696;SDS011;2873;50.966;7.210;2023-08-17T03:50:53;10.38;;;7.53;;
5696;SDS011;2873;50.966;7.210;2023-08-17T03:53:19;13.30;;;7.63;;
5696;SDS011;2873;50.966;7.210;2023-08-17T03:55:48;9.53;;;7.03;;
5696;SDS011;2873;50.966;7.210;2023-08-17T03:58:14;11.73;;;6.90;;
5696;SDS011;2873;50.966;7.210;2023-08-17T04:00:41;14.27;;;7.57;;
5696;SDS011;2873;50.966;7.210;2023-08-17T04:03:07;12.43;;;8.48;;
5696;SDS011;2873;50.966;7.210;2023-08-17T04:05:33;11.88;;;8.32;;
5696;SDS011;2873;50.966;7.210;2023-08-17T04:07:59;11.57;;;8.13;;
5696;SDS011;2873;50.966;7.210;2023-08-17T04:10:28;16.48;;;8.65;;
5696;SDS011;2873;50.966;7.210;2023-08-17T04:12:54;11.75;;;8.40;;
5696;SDS011;2873;50.966;7.210;2023-08-17T04:15:20;15.45;;;8.98;;
5696;SDS011;2873;50.966;7.210;2023-08-17T04:17:46;12.00;;;8.50;;
5696;SDS011;2873;50.966;7.210;2023-08-17T04:20:11;10.23;;;7.70;;
5696;SDS011;2873;50.966;7.210;2023-08-17T04:22:37;11.70;;;8.60;;
5696;SDS011;2873;50.966;7.210;2023-08-17T04:25:02;23.92;;;9.82;;
5696;SDS011;2873;50.966;7.210;2023-08-17T04:27:28;14.75;;;9.63;;
5696;SDS011;2873;50.966;7.210;2023-08-17T04:29:53;16.37;;;10.10;;
5696;SDS011;2873;50.966;7.210;2023-08-17T04:32:19;15.50;;;9.97;;
5696;SDS011;2873;50.966;7.210;2023-08-17T04:34:45;17.23;;;9.83;;
5696;SDS011;2873;50.966;7.210;2023-08-17T04:37:11;18.20;;;9.93;;
5696;SDS011;2873;50.966;7.210;2023-08-17T04:39:36;14.75;;;11.30;;
5696;SDS011;2873;50.966;7.210;2023-08-17T04:42:02;14.15;;;11.00;;
5696;SDS011;2873;50.966;7.210;2023-08-17T04:44:29;15.90;;;11.77;;
5696;SDS011;2873;50.966;7.210;2023-08-17T04:46:54;16.73;;;10.73;;
5696;SDS011;2873;50.966;7.210;2023-08-17T04:49:20;17.35;;;11.93;;
5696;SDS011;2873;50.966;7.210;2023-08-17T04:51:45;18.03;;;10.93;;
5696;SDS011;2873;50.966;7.210;2023-08-17T04:54:11;21.20;;;12.33;;
5696;SDS011;2873;50.966;7.210;2023-08-17T04:56:36;16.97;;;11.53;;
5696;SDS011;2873;50.966;7.210;2023-08-17T04:59:02;16.92;;;12.10;;
5696;SDS011;2873;50.966;7.210;2023-08-17T05:01:27;17.60;;;11.93;;
5696;SDS011;2873;50.966;7.210;2023-08-17T05:03:53;15.37;;;10.83;;
5696;SDS011;2873;50.966;7.210;2023-08-17T05:06:19;16.25;;;11.10;;
5696;SDS011;2873;50.966;7.210;2023-08-17T05:08:44;16.57;;;11.30;;
5696;SDS011;2873;50.966;7.210;2023-08-17T05:11:10;13.83;;;9.97;;
5696;SDS011;2873;50.966;7.210;2023-08-17T05:13:35;15.63;;;10.40;;
5696;SDS011;2873;50.966;7.210;2023-08-17T05:16:01;15.18;;;10.98;;
5696;SDS011;2873;50.966;7.210;2023-08-17T05:18:26;18.10;;;12.30;;
5696;SDS011;2873;50.966;7.210;2023-08-17T05:20:52;16.77;;;11.40;;
5696;SDS011;2873;50.966;7.210;2023-08-17T05:23:18;22.63;;;11.93;;
5696;SDS011;2873;50.966;7.210;2023-08-17T05:25:47;17.17;;;11.70;;
5696;SDS011;2873;50.966;7.210;2023-08-17T05:28:13;20.85;;;12.07;;
5696;SDS011;2873;50.966;7.210;2023-08-17T05:30:39;18.35;;;10.82;;
5696;SDS011;2873;50.966;7.210;2023-08-17T05:33:05;15.00;;;11.00;;
5696;SDS011;2873;50.966;7.210;2023-08-17T05:35:31;18.43;;;11.80;;
5696;SDS011;2873;50.966;7.210;2023-08-17T05:37:57;19.55;;;12.07;;
5696;SDS011;2873;50.966;7.210;2023-08-17T05:40:23;17.53;;;11.43;;
5696;SDS011;2873;50.966;7.210;2023-08-17T05:42:48;19.70;;;11.00;;
5696;SDS011;2873;50.966;7.210;2023-08-17T05:45:14;18.60;;;11.35;;
5696;SDS011;2873;50.966;7.210;2023-08-17T05:47:40;21.77;;;11.90;;
5696;SDS011;2873;50.966;7.210;2023-08-17T05:50:05;15.87;;;11.73;;
5696;SDS011;2873;50.966;7.210;2023-08-17T05:52:31;19.15;;;11.70;;
5696;SDS011;2873;50.966;7.210;2023-08-17T05:54:57;20.40;;;11.10;;
5696;SDS011;2873;50.966;7.210;2023-08-17T05:57:22;15.85;;;11.98;;
5696;SDS011;2873;50.966;7.210;2023-08-17T05:59:48;19.80;;;12.47;;
5696;SDS011;2873;50.966;7.210;2023-08-17T06:02:14;17.10;;;11.63;;
5696;SDS011;2873;50.966;7.210;2023-08-17T06:04:39;20.83;;;12.20;;
5696;SDS011;2873;50.966;7.210;2023-08-17T06:07:05;21.50;;;11.77;;
5696;SDS011;2873;50.966;7.210;2023-08-17T06:09:31;17.63;;;12.10;;
5696;SDS011;2873;50.966;7.210;2023-08-17T06:11:57;20.27;;;11.20;;
5696;SDS011;2873;50.966;7.210;2023-08-17T06:14:22;16.87;;;11.87;;
5696;SDS011;2873;50.966;7.210;2023-08-17T06:16:48;16.08;;;11.60;;
5696;SDS011;2873;50.966;7.210;2023-08-17T06:19:13;18.42;;;11.95;;
5696;SDS011;2873;50.966;7.210;2023-08-17T06:21:39;20.23;;;12.80;;
5696;SDS011;2873;50.966;7.210;2023-08-17T06:24:05;21.30;;;12.57;;
5696;SDS011;2873;50.966;7.210;2023-08-17T06:26:30;18.33;;;11.60;;
5696;SDS011;2873;50.966;7.210;2023-08-17T06:28:56;21.77;;;12.17;;
5696;SDS011;2873;50.966;7.210;2023-08-17T06:31:22;18.23;;;11.50;;
5696;SDS011;2873;50.966;7.210;2023-08-17T06:33:52;17.08;;;11.68;;
5696;SDS011;2873;50.966;7.210;2023-08-17T06:36:18;18.83;;;12.10;;
5696;SDS011;2873;50.966;7.210;2023-08-17T06:38:43;15.63;;;11.50;;
5696;SDS011;2873;50.966;7.210;2023-08-17T06:41:09;23.58;;;11.60;;
5696;SDS011;2873;50.966;7.210;2023-08-17T06:43:35;20.05;;;11.00;;
5696;SDS011;2873;50.966;7.210;2023-08-17T06:46:00;18.13;;;11.20;;
5696;SDS011;2873;50.966;7.210;2023-08-17T06:48:26;17.35;;;11.82;;
5696;SDS011;2873;50.966;7.210;2023-08-17T06:50:52;17.70;;;12.18;;
5696;SDS011;2873;50.966;7.210;2023-08-17T06:53:18;21.80;;;11.93;;
5696;SDS011;2873;50.966;7.210;2023-08-17T06:55:44;15.37;;;10.20;;
5696;SDS011;2873;50.966;7.210;2023-08-17T06:58:09;15.57;;;10.27;;
5696;SDS011;2873;50.966;7.210;2023-08-17T07:00:35;16.73;;;11.32;;
5696;SDS011;2873;50.966;7.210;2023-08-17T07:03:01;18.60;;;10.50;;
5696;SDS011;2873;50.966;7.210;2023-08-17T07:05:27;13.27;;;10.27;;
5696;SDS011;2873;50.966;7.210;2023-08-17T07:07:52;14.33;;;10.73;;
5696;SDS011;2873;50.966;7.210;2023-08-17T07:10:18;16.77;;;10.80;;
5696;SDS011;2873;50.966;7.210;2023-08-17T07:12:44;15.15;;;10.82;;
5696;SDS011;2873;50.966;7.210;2023-08-17T07:15:10;15.73;;;10.83;;
5696;SDS011;2873;50.966;7.210;2023-08-17T07:17:36;16.00;;;11.20;;
5696;SDS011;2873;50.966;7.210;2023-08-17T07:20:02;14.90;;;10.32;;
5696;SDS011;2873;50.966;7.210;2023-08-17T07:22:28;15.55;;;10.20;;
5696;SDS011;2873;50.966;7.210;2023-08-17T07:24:54;13.55;;;9.65;;
5696;SDS011;2873;50.966;7.210;2023-08-17T07:27:20;14.90;;;10.20;;
5696;SDS011;2873;50.966;7.210;2023-08-17T07:29:46;14.73;;;10.07;;
5696;SDS011;2873;50.966;7.210;2023-08-17T07:32:11;13.43;;;9.10;;
5696;SDS011;2873;50.966;7.210;2023-08-17T07:34:37;17.25;;;8.85;;
5696;SDS011;2873;50.966;7.210;2023-08-17T07:37:05;13.65;;;9.20;;
5696;SDS011;2873;50.966;7.210;2023-08-17T07:39:31;12.10;;;8.73;;
5696;SDS011;2873;50.966;7.210;2023-08-17T07:41:57;11.30;;;8.93;;
5696;SDS011;2873;50.966;7.210;2023-08-17T07:44:23;11.20;;;8.35;;
5696;SDS011;2873;50.966;7.210;2023-08-17T07:46:49;13.25;;;8.98;;
5696;SDS011;2873;50.966;7.210;2023-08-17T07:49:14;12.37;;;8.30;;
5696;SDS011;2873;50.966;7.210;2023-08-17T07:51:40;13.37;;;7.90;;
5696;SDS011;2873;50.966;7.210;2023-08-17T07:54:05;13.00;;;8.33;;
5696;SDS011;2873;50.966;7.210;2023-08-17T07:56:31;10.00;;;8.05;;
5696;SDS011;2873;50.966;7.210;2023-08-17T07:58:56;11.70;;;8.10;;
5696;SDS011;2873;50.966;7.210;2023-08-17T08:01:22;15.33;;;9.17;;
5696;SDS011;2873;50.966;7.210;2023-08-17T08:03:48;11.70;;;8.70;;
5696;SDS011;2873;50.966;7.210;2023-08-17T08:06:13;11.45;;;8.18;;
5696;SDS011;2873;50.966;7.210;2023-08-17T08:08:41;11.45;;;8.55;;
5696;SDS011;2873;50.966;7.210;2023-08-17T08:11:07;11.65;;;8.40;;
5696;SDS011;2873;50.966;7.210;2023-08-17T08:13:33;9.27;;;7.70;;
5696;SDS011;2873;50.966;7.210;2023-08-17T08:15:58;12.83;;;7.87;;
5696;SDS011;2873;50.966;7.210;2023-08-17T08:18:24;10.10;;;7.60;;
5696;SDS011;2873;50.966;7.210;2023-08-17T08:20:50;8.70;;;6.70;;
5696;SDS011;2873;50.966;7.210;2023-08-17T08:23:15;10.70;;;8.23;;
5696;SDS011;2873;50.966;7.210;2023-08-17T08:25:41;10.65;;;7.50;;
5696;SDS011;2873;50.966;7.210;2023-08-17T08:28:07;8.90;;;7.40;;
5696;SDS011;2873;50.966;7.210;2023-08-17T08:30:33;10.50;;;8.10;;
5696;SDS011;2873;50.966;7.210;2023-08-17T08:32:59;11.17;;;8.00;;
5696;SDS011;2873;50.966;7.210;2023-08-17T08:35:25;10.05;;;7.60;;
5696;SDS011;2873;50.966;7.210;2023-08-17T08:37:51;9.27;;;7.40;;
5696;SDS011;2873;50.966;7.210;2023-08-17T08:40:16;8.60;;;7.10;;
5696;SDS011;2873;50.966;7.210;2023-08-17T08:42:42;10.57;;;8.70;;
5696;SDS011;2873;50.966;7.210;2023-08-17T08:45:08;10.32;;;7.68;;
5696;SDS011;2873;50.966;7.210;2023-08-17T08:47:36;12.57;;;7.00;;
5696;SDS011;2873;50.966;7.210;2023-08-17T08:50:03;11.18;;;7.47;;
5696;SDS011;2873;50.966;7.210;2023-08-17T08:52:41;10.55;;;6.80;;
5696;SDS011;2873;50.966;7.210;2023-08-17T08:57:40;7.30;;;6.60;;
5696;SDS011;2873;50.966;7.210;2023-08-17T09:00:07;8.60;;;6.30;;
5696;SDS011;2873;50.966;7.210;2023-08-17T09:02:34;11.40;;;6.82;;
5696;SDS011;2873;50.966;7.210;2023-08-17T09:05:00;12.65;;;6.60;;
5696;SDS011;2873;50.966;7.210;2023-08-17T09:07:29;7.88;;;6.80;;
5696;SDS011;2873;50.966;7.210;2023-08-17T09:09:55;8.30;;;7.00;;
5696;SDS011;2873;50.966;7.210;2023-08-17T09:12:21;7.88;;;6.50;;
5696;SDS011;2873;50.966;7.210;2023-08-17T09:14:47;11.43;;;7.10;;
5696;SDS011;2873;50.966;7.210;2023-08-17T09:17:13;14.85;;;7.13;;
5696;SDS011;2873;50.966;7.210;2023-08-17T09:19:38;12.70;;;7.37;;
5696;SDS011;2873;50.966;7.210;2023-08-17T09:22:04;10.30;;;8.20;;
5696;SDS011;2873;50.966;7.210;2023-08-17T09:24:36;9.83;;;7.23;;
5696;SDS011;2873;50.966;7.210;2023-08-17T09:27:02;9.52;;;7.47;;
5696;SDS011;2873;50.966;7.210;2023-08-17T09:29:29;10.27;;;7.80;;
5696;SDS011;2873;50.966;7.210;2023-08-17T09:31:58;10.70;;;7.50;;
5696;SDS011;2873;50.966;7.210;2023-08-17T09:34:30;9.98;;;7.18;;
5696;SDS011;2873;50.966;7.210;2023-08-17T09:36:57;8.20;;;6.63;;
5696;SDS011;2873;50.966;7.210;2023-08-17T09:39:28;8.57;;;6.90;;
5696;SDS011;2873;50.966;7.210;2023-08-17T09:41:53;11.87;;;7.40;;
5696;SDS011;2873;50.966;7.210;2023-08-17T09:44:20;11.55;;;7.88;;
5696;SDS011;2873;50.966;7.210;2023-08-17T09:46:46;9.90;;;7.88;;
5696;SDS011;2873;50.966;7.210;2023-08-17T09:49:12;10.50;;;7.40;;
5696;SDS011;2873;50.966;7.210;2023-08-17T09:51:37;10.00;;;7.25;;
5696;SDS011;2873;50.966;7.210;2023-08-17T09:54:03;10.10;;;7.70;;
5696;SDS011;2873;50.966;7.210;2023-08-17T09:56:29;10.75;;;7.88;;
5696;SDS011;2873;50.966;7.210;2023-08-17T09:58:56;12.95;;;7.68;;
5696;SDS011;2873;50.966;7.210;2023-08-17T10:01:22;10.15;;;7.20;;
5696;SDS011;2873;50.966;7.210;2023-08-17T10:03:48;9.52;;;6.90;;
5696;SDS011;2873;50.966;7.210;2023-08-17T10:06:17;10.00;;;6.40;;
5696;SDS011;2873;50.966;7.210;2023-08-17T10:08:47;8.47;;;6.50;;
5696;SDS011;2873;50.966;7.210;2023-08-17T10:11:16;8.60;;;6.53;;
5696;SDS011;2873;50.966;7.210;2023-08-17T10:13:49;7.20;;;6.50;;
5696;SDS011;2873;50.966;7.210;2023-08-17T10:16:41;6.63;;;5.63;;
5696;SDS011;2873;50.966;7.210;2023-08-17T10:19:14;7.37;;;6.47;;
5696;SDS011;2873;50.966;7.210;2023-08-17T10:21:46;8.35;;;6.20;;
5696;SDS011;2873;50.966;7.210;2023-08-17T10:24:19;10.00;;;6.57;;
5696;SDS011;2873;50.966;7.210;2023-08-17T10:26:45;8.00;;;6.50;;
5696;SDS011;2873;50.966;7.210;2023-08-17T10:29:11;9.68;;;6.40;;
5696;SDS011;2873;50.966;7.210;2023-08-17T10:31:37;12.13;;;6.57;;
5696;SDS011;2873;50.966;7.210;2023-08-17T10:34:03;8.00;;;6.90;;
5696;SDS011;2873;50.966;7.210;2023-08-17T10:36:33;9.83;;;6.80;;
5696;SDS011;2873;50.966;7.210;2023-08-17T10:41:46;8.10;;;6.43;;
5696;SDS011;2873;50.966;7.210;2023-08-17T10:44:16;8.57;;;5.83;;
5696;SDS011;2873;50.966;7.210;2023-08-17T10:46:43;7.07;;;5.20;;
5696;SDS011;2873;50.966;7.210;2023-08-17T10:49:25;8.07;;;5.30;;
5696;SDS011;2873;50.966;7.210;2023-08-17T10:52:04;6.78;;;6.07;;
5696;SDS011;2873;50.966;7.210;2023-08-17T10:54:41;7.90;;;5.72;;
5696;SDS011;2873;50.966;7.210;2023-08-17T11:00:19;5.97;;;5.38;;
5696;SDS011;2873;50.966;7.210;2023-08-17T11:05:49;5.40;;;4.95;;
5696;SDS011;2873;50.966;7.210;2023-08-17T11:11:13;5.25;;;4.75;;
5696;SDS011;2873;50.966;7.210;2023-08-17T11:13:40;9.15;;;5.03;;
5696;SDS011;2873;50.966;7.210;2023-08-17T11:16:07;5.70;;;4.83;;
5696;SDS011;2873;50.966;7.210;2023-08-17T11:18:34;6.85;;;5.40;;
5696;SDS011;2873;50.966;7.210;2023-08-17T11:21:01;5.80;;;5.20;;
5696;SDS011;2873;50.966;7.210;2023-08-17T11:23:28;7.10;;;5.10;;
5696;SDS011;2873;50.966;7.210;2023-08-17T11:25:55;5.20;;;4.70;;
5696;SDS011;2873;50.966;7.210;2023-08-17T11:28:21;7.10;;;4.90;;
5696;SDS011;2873;50.966;7.210;2023-08-17T11:30:56;8.25;;;4.80;;
5696;SDS011;2873;50.966;7.210;2023-08-17T11:33:25;10.95;;;4.70;;
5696;SDS011;2873;50.966;7.210;2023-08-17T11:35:53;5.00;;;4.50;;
5696;SDS011;2873;50.966;7.210;2023-08-17T11:38:20;6.30;;;5.13;;
5696;SDS011;2873;50.966;7.210;2023-08-17T11:40:45;6.57;;;4.67;;
5696;SDS011;2873;50.966;7.210;2023-08-17T11:43:11;5.50;;;5.00;;
5696;SDS011;2873;50.966;7.210;2023-08-17T11:45:37;6.47;;;4.82;;
5696;SDS011;2873;50.966;7.210;2023-08-17T11:48:02;6.80;;;4.80;;
5696;SDS011;2873;50.966;7.210;2023-08-17T11:50:28;7.13;;;4.90;;
5696;SDS011;2873;50.966;7.210;2023-08-17T11:52:54;5.03;;;4.50;;
5696;SDS011;2873;50.966;7.210;2023-08-17T11:55:20;3.77;;;3.47;;
5696;SDS011;2873;50.966;7.210;2023-08-17T11:57:46;4.10;;;3.80;;
5696;SDS011;2873;50.966;7.210;2023-08-17T12:00:16;3.90;;;3.60;;
5696;SDS011;2873;50.966;7.210;2023-08-17T12:02:46;4.30;;;4.00;;
5696;SDS011;2873;50.966;7.210;2023-08-17T12:05:12;3.78;;;3.58;;
5696;SDS011;2873;50.966;7.210;2023-08-17T12:07:38;5.20;;;3.53;;
5696;SDS011;2873;50.966;7.210;2023-08-17T12:10:03;4.80;;;4.10;;
5696;SDS011;2873;50.966;7.210;2023-08-17T12:12:30;4.15;;;3.80;;
5696;SDS011;2873;50.966;7.210;2023-08-17T12:14:57;5.43;;;4.93;;
5696;SDS011;2873;50.966;7.210;2023-08-17T12:17:23;7.90;;;5.15;;
5696;SDS011;2873;50.966;7.210;2023-08-17T12:19:50;6.43;;;5.40;;
5696;SDS011;2873;50.966;7.210;2023-08-17T12:22:19;6.60;;;6.00;;
5696;SDS011;2873;50.966;7.210;2023-08-17T12:24:47;6.37;;;5.73;;
5696;SDS011;2873;50.966;7.210;2023-08-17T12:27:13;7.32;;;5.90;;
5696;SDS011;2873;50.966;7.210;2023-08-17T12:29:45;6.30;;;5.50;;
5696;SDS011;2873;50.966;7.210;2023-08-17T12:32:13;6.00;;;5.50;;
5696;SDS011;2873;50.966;7.210;2023-08-17T12:34:40;5.70;;;5.20;;
5696;SDS011;2873;50.966;7.210;2023-08-17T12:37:07;6.83;;;5.30;;
5696;SDS011;2873;50.966;7.210;2023-08-17T12:39:34;7.73;;;5.90;;
5696;SDS011;2873;50.966;7.210;2023-08-17T12:42:00;6.20;;;5.60;;
5696;SDS011;2873;50.966;7.210;2023-08-17T12:44:26;5.90;;;5.40;;
5696;SDS011;2873;50.966;7.210;2023-08-17T12:46:51;7.53;;;5.60;;
5696;SDS011;2873;50.966;7.210;2023-08-17T12:49:17;6.30;;;5.40;;
5696;SDS011;2873;50.966;7.210;2023-08-17T12:51:42;11.27;;;7.00;;
5696;SDS011;2873;50.966;7.210;2023-08-17T12:54:08;7.10;;;5.80;;
5696;SDS011;2873;50.966;7.210;2023-08-17T12:56:34;7.63;;;5.60;;
5696;SDS011;2873;50.966;7.210;2023-08-17T12:58:59;8.85;;;5.95;;
5696;SDS011;2873;50.966;7.210;2023-08-17T13:01:25;6.30;;;5.33;;
5696;SDS011;2873;50.966;7.210;2023-08-17T13:03:50;6.10;;;5.50;;
5696;SDS011;2873;50.966;7.210;2023-08-17T13:06:16;9.20;;;6.00;;
5696;SDS011;2873;50.966;7.210;2023-08-17T13:08:41;6.00;;;5.50;;
5696;SDS011;2873;50.966;7.210;2023-08-17T13:11:07;5.07;;;4.67;;
5696;SDS011;2873;50.966;7.210;2023-08-17T13:13:33;6.10;;;5.50;;
5696;SDS011;2873;50.966;7.210;2023-08-17T13:15:58;5.70;;;5.10;;
5696;SDS011;2873;50.966;7.210;2023-08-17T13:18:24;5.82;;;5.32;;
5696;SDS011;2873;50.966;7.210;2023-08-17T13:20:50;6.47;;;5.63;;
5696;SDS011;2873;50.966;7.210;2023-08-17T13:23:16;6.60;;;6.00;;
5696;SDS011;2873;50.966;7.210;2023-08-17T13:25:41;7.03;;;5.53;;
5696;SDS011;2873;50.966;7.210;2023-08-17T13:28:07;7.90;;;5.63;;
5696;SDS011;2873;50.966;7.210;2023-08-17T13:30:33;8.30;;;5.50;;
5696;SDS011;2873;50.966;7.210;2023-08-17T13:32:58;6.27;;;5.60;;
5696;SDS011;2873;50.966;7.210;2023-08-17T13:35:24;6.47;;;5.88;;
5696;SDS011;2873;50.966;7.210;2023-08-17T13:37:53;7.25;;;5.47;;
5696;SDS011;2873;50.966;7.210;2023-08-17T13:40:18;6.88;;;6.03;;
5696;SDS011;2873;50.966;7.210;2023-08-17T13:42:44;6.80;;;6.10;;
5696;SDS011;2873;50.966;7.210;2023-08-17T13:45:10;6.90;;;6.20;;
5696;SDS011;2873;50.966;7.210;2023-08-17T13:47:35;7.43;;;5.50;;
5696;SDS011;2873;50.966;7.210;2023-08-17T13:50:01;5.83;;;5.17;;
5696;SDS011;2873;50.966;7.210;2023-08-17T13:52:28;6.07;;;5.47;;
5696;SDS011;2873;50.966;7.210;2023-08-17T13:54:53;6.43;;;5.40;;
5696;SDS011;2873;50.966;7.210;2023-08-17T13:57:19;6.63;;;5.60;;
5696;SDS011;2873;50.966;7.210;2023-08-17T13:59:45;10.93;;;5.35;;
5696;SDS011;2873;50.966;7.210;2023-08-17T14:02:10;6.87;;;4.90;;
5696;SDS011;2873;50.966;7.210;2023-08-17T14:04:36;6.60;;;4.80;;
5696;SDS011;2873;50.966;7.210;2023-08-17T14:07:02;6.70;;;5.00;;
5696;SDS011;2873;50.966;7.210;2023-08-17T14:09:27;5.80;;;4.90;;
5696;SDS011;2873;50.966;7.210;2023-08-17T14:11:53;5.00;;;4.60;;
5696;SDS011;2873;50.966;7.210;2023-08-17T14:14:18;5.70;;;5.20;;
5696;SDS011;2873;50.966;7.210;2023-08-17T14:16:44;6.23;;;4.87;;
5696;SDS011;2873;50.966;7.210;2023-08-17T14:19:09;11.40;;;5.00;;
5696;SDS011;2873;50.966;7.210;2023-08-17T14:21:35;7.27;;;5.23;;
5696;SDS011;2873;50.966;7.210;2023-08-17T14:24:00;6.17;;;5.10;;
5696;SDS011;2873;50.966;7.210;2023-08-17T14:26:26;5.50;;;4.70;;
5696;SDS011;2873;50.966;7.210;2023-08-17T14:28:51;5.37;;;4.73;;
5696;SDS011;2873;50.966;7.210;2023-08-17T14:31:17;9.30;;;5.20;;
5696;SDS011;2873;50.966;7.210;2023-08-17T14:33:43;5.70;;;5.10;;
5696;SDS011;2873;50.966;7.210;2023-08-17T14:36:11;5.40;;;4.90;;
5696;SDS011;2873;50.966;7.210;2023-08-17T14:38:37;5.73;;;4.43;;
5696;SDS011;2873;50.966;7.210;2023-08-17T14:41:03;6.50;;;5.50;;
5696;SDS011;2873;50.966;7.210;2023-08-17T14:43:29;8.05;;;5.00;;
5696;SDS011;2873;50.966;7.210;2023-08-17T14:45:55;5.93;;;5.18;;
5696;SDS011;2873;50.966;7.210;2023-08-17T14:48:21;5.13;;;4.60;;
5696;SDS011;2873;50.966;7.210;2023-08-17T14:50:46;4.80;;;4.30;;
5696;SDS011;2873;50.966;7.210;2023-08-17T14:53:12;5.37;;;4.50;;
5696;SDS011;2873;50.966;7.210;2023-08-17T14:55:37;4.50;;;4.20;;
5696;SDS011;2873;50.966;7.210;2023-08-17T14:58:03;5.17;;;4.67;;
5696;SDS011;2873;50.966;7.210;2023-08-17T15:00:28;4.97;;;4.57;;
5696;SDS011;2873;50.966;7.210;2023-08-17T15:02:55;6.10;;;4.33;;
5696;SDS011;2873;50.966;7.210;2023-08-17T15:05:24;6.00;;;4.70;;
5696;SDS011;2873;50.966;7.210;2023-08-17T15:07:50;7.50;;;4.97;;
5696;SDS011;2873;50.966;7.210;2023-08-17T15:10:16;5.97;;;5.03;;
5696;SDS011;2873;50.966;7.210;2023-08-17T15:12:42;7.57;;;5.22;;
5696;SDS011;2873;50.966;7.210;2023-08-17T15:15:07;7.43;;;4.40;;
5696;SDS011;2873;50.966;7.210;2023-08-17T15:17:33;8.43;;;4.78;;